Flight Track Log - Related Links

Times and Time Zones

All times are in EDT time to prevent confusion due to time zone crossing. See the AAY800 flight status page for this flight to view local times or setup timezone preferences in your user account.

Time Position Orientation Groundspeed Altitude Reporting Facility
EDT Latitude Longitude Course Direction KTS MPH feet Rate Location/Type
Tue 07:51:05 AM 27.9167 -82.6833 360° North 203 234 600  Level Tampa TRACON
Tue 07:52:11 AM 27.9833 -82.6833 360° North 187 215 3,300 2,000 Climbing Tampa TRACON
Tue 07:53:56 AM 28.0892 -82.6572 12° North 239 275 6,300 1,964 Climbing Jacksonville Center
Tue 07:54:56 AM 28.1622 -82.6453 North 260 299 8,700 2,150 Climbing Jacksonville Center
Tue 07:55:56 AM 28.2456 -82.6333 North 277 319 10,600 1,500 Climbing Jacksonville Center
Tue 07:56:56 AM 28.3417 -82.6142 10° North 313 360 11,700 1,550 Climbing Jacksonville Center
Tue 07:57:56 AM 28.4500 -82.5950 North 358 412 13,700 2,231 Climbing Jacksonville Center
Tue 07:58:57 AM 28.5586 -82.6067 355° North 389 448 16,200 2,150 Climbing Jacksonville Center
Tue 07:59:56 AM 28.6672 -82.6347 347° North 389 448 18,000 1,815 Climbing Jacksonville Center
Tue 08:00:56 AM 28.7819 -82.6367 359° North 395 455 19,800 1,550 Climbing Jacksonville Center
Tue 08:01:56 AM 28.9031 -82.6483 355° North 406 467 21,100 1,537 Climbing Jacksonville Center
Tue 08:02:57 AM 29.0261 -82.6503 359° North 426 490 22,900 1,587 Climbing Jacksonville Center
Tue 08:03:57 AM 29.1514 -82.6572 357° North 436 502 24,300 1,664 Climbing Jacksonville Center
Tue 08:04:56 AM 29.2789 -82.6569 360° North 444 511 26,200 1,462 Climbing Jacksonville Center
Tue 08:05:56 AM 29.4019 -82.6614 358° North 444 511 27,200 1,250 Climbing Jacksonville Center
Tue 08:06:56 AM 29.5272 -82.6633 359° North 444 511 28,700 1,300 Climbing Jacksonville Center
Tue 08:07:56 AM 29.6525 -82.6656 359° North 443 510 29,800 1,100 Climbing Jacksonville Center
Tue 08:08:56 AM 29.7653 -82.6653 360° North 443 510 30,900 950 Climbing Jacksonville Center
Tue 08:09:56 AM 29.8864 -82.6722 357° North 443 510 31,700 850 Climbing Jacksonville Center
Tue 08:10:56 AM 30.0136 -82.6719 360° North 443 510 32,600 650 Climbing Jacksonville Center
Tue 08:11:56 AM 30.1347 -82.6789 357° North 438 504 33,000 200 Climbing Jacksonville Center
Tue 08:12:56 AM 30.2581 -82.6786 360° North 438 504 33,000  Level Jacksonville Center
Tue 08:13:56 AM 30.3811 -82.6831 358° North 443 510 33,000  Level Jacksonville Center
Tue 08:14:56 AM 30.5064 -82.6853 359° North 443 510 33,000  Level Jacksonville Center
Tue 08:15:56 AM 30.6233 -82.7114 349° North 438 504 33,000  Level Jacksonville Center
Tue 08:16:57 AM 30.7425 -82.7356 350° North 438 504 33,000  Level Jacksonville Center
Tue 08:17:56 AM 30.8572 -82.7619 349° North 425 489 33,000  Level Jacksonville Center
Tue 08:18:56 AM 30.9764 -82.7883 349° North 425 489 33,000  Level Jacksonville Center
Tue 08:19:56 AM 31.0953 -82.8100 351° North 425 489 33,000  Level Jacksonville Center
Tue 08:20:56 AM 31.2122 -82.8367 349° North 430 495 33,000  Level Jacksonville Center
Tue 08:21:57 AM 31.3292 -82.8633 349° North 430 495 33,000  Level Jacksonville Center
Tue 08:22:57 AM 31.4461 -82.8878 350° North 430 495 33,000  Level Jacksonville Center
Tue 08:23:56 AM 31.5672 -82.9097 351° North 430 495 33,000  Level Jacksonville Center
Tue 08:26:17 AM 31.8422 -82.9753 349° North 419 482 33,000  Level Atlanta Center
Tue 08:27:17 AM 31.9614 -82.9983 351° North 419 482 33,000  Level Atlanta Center
Tue 08:28:17 AM 32.0786 -83.0264 349° North 425 489 33,000  Level Atlanta Center
Tue 08:29:17 AM 32.1933 -83.0472 351° North 425 489 33,000  Level Atlanta Center
Tue 08:30:17 AM 32.3106 -83.0781 347° North 425 489 33,000 -150 Level Atlanta Center
Tue 08:31:17 AM 32.4275 -83.0989 351° North 425 489 32,700 -500 Descending Atlanta Center
Tue 08:32:17 AM 32.5406 -83.1297 347° North 425 489 32,000 -350 Descending Atlanta Center
Tue 08:33:17 AM 32.6575 -83.1506 351° North 425 489 32,000  Level Atlanta Center
Tue 08:34:17 AM 32.7706 -83.1817 347° North 425 489 32,000  Level Atlanta Center
Tue 08:35:17 AM 32.8833 -83.2003 352° North 416 479 32,000  Level Atlanta Center
Tue 08:36:17 AM 32.9983 -83.2314 347° North 416 479 32,000  Level Atlanta Center
Tue 08:37:17 AM 33.1258 -83.2575 350° North 416 479 32,000  Level Atlanta Center
Tue 08:38:17 AM 33.2450 -83.2861 349° North 421 484 32,000  Level Atlanta Center
Tue 08:39:17 AM 33.3578 -83.3075 351° North 426 490 32,000  Level Atlanta Center
Tue 08:40:17 AM 33.4728 -83.3364 348° North 426 490 32,000  Level Atlanta Center
Tue 08:41:17 AM 33.5858 -83.3581 351° North 421 484 32,000  Level Atlanta Center
Tue 08:42:17 AM 33.7006 -83.3872 348° North 421 484 32,000  Level Atlanta Center
Tue 08:43:17 AM 33.8156 -83.4086 351° North 416 479 32,000  Level Atlanta Center
Tue 08:44:18 AM 33.9306 -83.4406 347° North 411 473 32,000  Level Atlanta Center
Tue 08:45:17 AM 34.0497 -83.4597 352° North 416 479 32,000  Level Atlanta Center
Tue 08:46:17 AM 34.1625 -83.4914 347° North 416 479 32,000  Level Atlanta Center
Tue 08:47:17 AM 34.2794 -83.5133 351° North 416 479 32,000  Level Atlanta Center
Tue 08:48:17 AM 34.3839 -83.5406 348° North 416 479 32,000  Level Atlanta Center
Tue 08:49:17 AM 34.5008 -83.5625 351° North 416 479 32,000  Level Atlanta Center
Tue 08:50:17 AM 34.6178 -83.5972 346° North 422 486 32,000  Level Atlanta Center
Tue 08:51:17 AM 34.7347 -83.6192 351° North 427 491 32,000  Level Atlanta Center
Tue 08:52:17 AM 34.8517 -83.6439 350° North 427 491 32,000  Level Atlanta Center
Tue 08:53:17 AM 34.9667 -83.6764 347° North 427 491 32,000  Level Atlanta Center
Tue 08:54:17 AM 35.0856 -83.7036 349° North 427 491 32,000  Level Atlanta Center
Tue 08:55:17 AM 35.2047 -83.7311 349° North 433 498 32,000  Level Atlanta Center
Tue 08:56:17 AM 35.3194 -83.7589 349° North 428 493 32,000  Level Atlanta Center
Tue 08:57:17 AM 35.4364 -83.7864 349° North 428 493 32,000  Level Atlanta Center
Tue 08:58:17 AM 35.5533 -83.8117 350° North 428 493 32,000  Level Atlanta Center
Tue 08:59:17 AM 35.6722 -83.8419 348° North 428 493 32,000  Level Atlanta Center
Tue 09:00:17 AM 35.7911 -83.8672 350° North 428 493 32,000  Level Atlanta Center
Tue 09:01:17 AM 35.9081 -83.9003 347° North 428 493 32,000  Level Atlanta Center
Tue 09:02:17 AM 36.0311 -83.9131 355° North 434 499 32,000  Level Atlanta Center
Tue 09:03:03 AM 36.1250 -83.9297 352° North 438 504 32,000  Level Indianapolis Center
Tue 09:04:05 AM 36.2453 -83.9428 355° North 438 504 32,000  Level Indianapolis Center
Tue 09:05:07 AM 36.3647 -83.9644 352° North 438 504 32,000  Level Indianapolis Center
Tue 09:06:09 AM 36.5114 -83.9817 355° North 439 505 32,000  Level Indianapolis Center
Tue 09:07:11 AM 36.6311 -84.0042 351° North 440 506 32,000  Level Indianapolis Center
Tue 09:08:13 AM 36.7522 -84.0192 354° North 435 501 32,000  Level Indianapolis Center
Tue 09:09:15 AM 36.8717 -84.0397 352° North 434 499 32,000  Level Indianapolis Center
Tue 09:10:17 AM 36.9928 -84.0561 354° North 433 498 32,000  Level Indianapolis Center
Tue 09:11:18 AM 37.1142 -84.0764 352° North 434 499 32,000  Level Indianapolis Center
Tue 09:12:20 AM 37.2556 -84.0944 354° North 435 501 32,000  Level Indianapolis Center
Tue 09:13:22 AM 37.3744 -84.1167 352° North 432 497 32,000  Level Indianapolis Center
Tue 09:14:24 AM 37.4956 -84.1300 355° North 432 497 32,000  Level Indianapolis Center
Tue 09:15:26 AM 37.6147 -84.1533 351° North 432 497 32,000  Level Indianapolis Center
Tue 09:16:28 AM 37.7369 -84.1667 355° North 434 499 32,000  Level Indianapolis Center
Tue 09:17:30 AM 37.8567 -84.1897 351° North 435 501 32,000  Level Indianapolis Center
Tue 09:18:32 AM 37.9972 -84.2067 355° North 434 499 32,000  Level Indianapolis Center
Tue 09:19:34 AM 38.1158 -84.2283 352° North 433 498 32,000  Level Indianapolis Center
Tue 09:20:36 AM 38.2389 -84.2425 355° North 435 501 32,000  Level Indianapolis Center
Tue 09:21:38 AM 38.3586 -84.2642 352° North 435 501 32,000  Level Indianapolis Center
Tue 09:22:40 AM 38.4769 -84.2803 354° North 432 497 32,000  Level Indianapolis Center
Tue 09:23:42 AM 38.5972 -84.3014 352° North 432 497 32,000  Level Indianapolis Center
Tue 09:24:44 AM 38.7211 -84.2969 North 443 510 32,000  Level Indianapolis Center
Tue 09:25:46 AM 38.8431 -84.2756 North 448 516 32,000  Level Indianapolis Center
Tue 09:26:48 AM 38.9897 -84.2547 North 441 507 32,000  Level Indianapolis Center
Tue 09:27:51 AM 39.1119 -84.2339 North 442 509 32,000 -192 Level Indianapolis Center
Tue 09:28:53 AM 39.2361 -84.2203 North 444 511 31,600 -484 Descending Indianapolis Center
Tue 09:29:55 AM 39.3606 -84.1975 North 452 520 31,000 -871 Descending Indianapolis Center
Tue 09:30:57 AM 39.4972 -84.1750 North 441 507 29,800 -1,258 Descending Indianapolis Center
Tue 09:31:59 AM 39.6217 -84.1547 North 444 511 28,400 -1,306 Descending Indianapolis Center
Tue 09:33:01 AM 39.7453 -84.1350 North 447 514 27,100 -1,258 Descending Indianapolis Center
Tue 09:34:03 AM 39.8758 -84.1136 North 438 504 25,800 -1,016 Descending Indianapolis Center
Tue 09:35:05 AM 39.9964 -84.0936 North 437 503 25,000 -387 Descending Indianapolis Center
Tue 09:36:07 AM 40.1172 -84.0714 North 436 502 25,000 -48 Level Indianapolis Center
Tue 09:37:09 AM 40.2375 -84.0533 North 436 502 24,900 -484 Descending Indianapolis Center
Tue 09:38:11 AM 40.3600 -84.0158 13° North 443 510 24,000 -726 Descending Indianapolis Center
Tue 09:39:13 AM 40.4822 -83.9750 14° North 449 517 23,400 -1,065 Descending Indianapolis Center
Tue 09:40:15 AM 40.6006 -83.9394 13° North 442 509 21,800 -1,742 Descending Indianapolis Center
Tue 09:41:17 AM 40.7300 -83.8906 16° North 409 471 19,800 -1,887 Descending Indianapolis Center
Tue 09:42:19 AM 40.8314 -83.8575 14° North 386 444 17,900 -2,226 Descending Indianapolis Center
Tue 09:43:21 AM 40.9281 -83.8228 15° North 366 421 15,200 -2,274 Descending Indianapolis Center
Tue 09:44:23 AM 41.0278 -83.7956 12° North 366 421 13,200 -1,790 Descending Indianapolis Center
Tue 09:45:25 AM 41.1183 -83.7567 18° North 352 405 11,500 -1,536 Descending Indianapolis Center
Tue 09:46:28 AM 41.2019 -83.7294 14° North 291 335 10,000 -1,824 Descending Cleveland Center
Tue 09:47:30 AM 41.2714 -83.7331 358° North 262 302 7,700 -2,226 Descending Cleveland Center
Tue 09:48:32 AM 41.3344 -83.7678 338° Northwest 248 285 5,400 -2,323 Descending Cleveland Center
Tue 09:49:34 AM 41.3947 -83.8003 338° Northwest 241 277 2,900 -2,419 Descending Cleveland Center
Tue 09:51:00 AM 41.4991 -83.7044 315° West  Level FlightAware Approximate
Tue 09:58:00 AM 41.5833 -83.8000 323° Northwest  Level FlightAware Approximate
Tue 09:59:00 AM 41.5868 -83.8078 323° Northwest  Level Estimated
Tue 10:00:00 AM 41.5833 -83.8000 323° Northwest  Level FlightAware Approximate
Tue 10:01:00 AM 41.5868 -83.8078 323° Northwest  Level Estimated
Tue 10:02:00 AM 41.5833 -83.8000 323° Northwest  Level FlightAware Approximate

Login

Don't have an account? Register now (free) for customized features, flight alerts, and more!